sensor_id;sensor_type;location;lat;lon;timestamp;P1;durP1;ratioP1;P2;durP2;ratioP2
54269;SDS011;40181;51.560;13.000;2023-04-03T00:00:08;2.40;;;1.92;;
54269;SDS011;40181;51.560;13.000;2023-04-03T00:02:39;2.95;;;1.90;;
54269;SDS011;40181;51.560;13.000;2023-04-03T00:05:08;1.65;;;1.55;;
54269;SDS011;40181;51.560;13.000;2023-04-03T00:07:37;3.70;;;1.98;;
54269;SDS011;40181;51.560;13.000;2023-04-03T00:10:07;2.10;;;1.90;;
54269;SDS011;40181;51.560;13.000;2023-04-03T00:12:40;2.30;;;1.98;;
54269;SDS011;40181;51.560;13.000;2023-04-03T00:15:09;3.80;;;1.95;;
54269;SDS011;40181;51.560;13.000;2023-04-03T00:17:38;2.00;;;1.80;;
54269;SDS011;40181;51.560;13.000;2023-04-03T00:20:08;2.47;;;1.85;;
54269;SDS011;40181;51.560;13.000;2023-04-03T00:22:37;2.70;;;1.97;;
54269;SDS011;40181;51.560;13.000;2023-04-03T00:25:07;2.17;;;1.80;;
54269;SDS011;40181;51.560;13.000;2023-04-03T00:27:39;2.97;;;1.90;;
54269;SDS011;40181;51.560;13.000;2023-04-03T00:30:09;2.05;;;1.80;;
54269;SDS011;40181;51.560;13.000;2023-04-03T00:32:42;6.03;;;2.55;;
54269;SDS011;40181;51.560;13.000;2023-04-03T00:35:12;4.63;;;2.00;;
54269;SDS011;40181;51.560;13.000;2023-04-03T00:37:41;2.08;;;1.77;;
54269;SDS011;40181;51.560;13.000;2023-04-03T00:40:14;3.58;;;2.33;;
54269;SDS011;40181;51.560;13.000;2023-04-03T00:42:45;2.00;;;1.80;;
54269;SDS011;40181;51.560;13.000;2023-04-03T00:45:30;1.88;;;1.70;;
54269;SDS011;40181;51.560;13.000;2023-04-03T00:48:03;2.53;;;2.13;;
54269;SDS011;40181;51.560;13.000;2023-04-03T00:50:36;3.42;;;1.77;;
54269;SDS011;40181;51.560;13.000;2023-04-03T00:53:09;2.42;;;1.73;;
54269;SDS011;40181;51.560;13.000;2023-04-03T00:55:47;6.70;;;1.95;;
54269;SDS011;40181;51.560;13.000;2023-04-03T00:58:18;3.05;;;2.00;;
54269;SDS011;40181;51.560;13.000;2023-04-03T01:00:53;2.13;;;1.92;;
54269;SDS011;40181;51.560;13.000;2023-04-03T01:03:25;4.05;;;2.10;;
54269;SDS011;40181;51.560;13.000;2023-04-03T01:05:56;3.53;;;1.77;;
54269;SDS011;40181;51.560;13.000;2023-04-03T01:08:26;2.77;;;1.70;;
54269;SDS011;40181;51.560;13.000;2023-04-03T01:10:57;3.83;;;1.50;;
54269;SDS011;40181;51.560;13.000;2023-04-03T01:13:27;2.60;;;1.95;;
54269;SDS011;40181;51.560;13.000;2023-04-03T01:16:00;1.60;;;1.50;;
54269;SDS011;40181;51.560;13.000;2023-04-03T01:18:31;3.28;;;1.85;;
54269;SDS011;40181;51.560;13.000;2023-04-03T01:21:11;2.22;;;2.03;;
54269;SDS011;40181;51.560;13.000;2023-04-03T01:24:22;3.42;;;1.88;;
54269;SDS011;40181;51.560;13.000;2023-04-03T01:27:04;1.63;;;1.52;;
54269;SDS011;40181;51.560;13.000;2023-04-03T01:29:35;1.75;;;1.65;;
54269;SDS011;40181;51.560;13.000;2023-04-03T01:32:07;2.72;;;1.98;;
54269;SDS011;40181;51.560;13.000;2023-04-03T01:34:36;2.90;;;2.17;;
54269;SDS011;40181;51.560;13.000;2023-04-03T01:37:05;1.70;;;1.60;;
54269;SDS011;40181;51.560;13.000;2023-04-03T01:39:34;2.33;;;1.75;;
54269;SDS011;40181;51.560;13.000;2023-04-03T01:42:03;1.85;;;1.67;;
54269;SDS011;40181;51.560;13.000;2023-04-03T01:44:33;1.98;;;1.70;;
54269;SDS011;40181;51.560;13.000;2023-04-03T01:47:02;2.47;;;2.03;;
54269;SDS011;40181;51.560;13.000;2023-04-03T01:49:36;5.80;;;2.20;;
54269;SDS011;40181;51.560;13.000;2023-04-03T01:52:05;2.38;;;2.00;;
54269;SDS011;40181;51.560;13.000;2023-04-03T01:54:34;2.55;;;1.83;;
54269;SDS011;40181;51.560;13.000;2023-04-03T01:57:03;1.92;;;1.73;;
54269;SDS011;40181;51.560;13.000;2023-04-03T01:59:32;5.70;;;2.03;;
54269;SDS011;40181;51.560;13.000;2023-04-03T02:02:01;3.45;;;2.28;;
54269;SDS011;40181;51.560;13.000;2023-04-03T02:04:32;3.60;;;2.00;;
54269;SDS011;40181;51.560;13.000;2023-04-03T02:07:01;2.35;;;1.85;;
54269;SDS011;40181;51.560;13.000;2023-04-03T02:09:30;2.63;;;1.83;;
54269;SDS011;40181;51.560;13.000;2023-04-03T02:11:59;1.60;;;1.50;;
54269;SDS011;40181;51.560;13.000;2023-04-03T02:14:28;2.60;;;2.10;;
54269;SDS011;40181;51.560;13.000;2023-04-03T02:16:57;2.10;;;1.90;;
54269;SDS011;40181;51.560;13.000;2023-04-03T02:19:32;2.15;;;1.95;;
54269;SDS011;40181;51.560;13.000;2023-04-03T02:22:02;3.63;;;2.03;;
54269;SDS011;40181;51.560;13.000;2023-04-03T02:24:31;4.33;;;2.07;;
54269;SDS011;40181;51.560;13.000;2023-04-03T02:27:01;3.03;;;2.10;;
54269;SDS011;40181;51.560;13.000;2023-04-03T02:29:30;3.28;;;2.17;;
54269;SDS011;40181;51.560;13.000;2023-04-03T02:31:59;3.00;;;2.35;;
54269;SDS011;40181;51.560;13.000;2023-04-03T02:34:28;3.70;;;2.45;;
54269;SDS011;40181;51.560;13.000;2023-04-03T02:36:59;3.05;;;2.28;;
54269;SDS011;40181;51.560;13.000;2023-04-03T02:39:28;2.05;;;1.90;;
54269;SDS011;40181;51.560;13.000;2023-04-03T02:41:57;2.70;;;2.28;;
54269;SDS011;40181;51.560;13.000;2023-04-03T02:44:26;2.03;;;1.73;;
54269;SDS011;40181;51.560;13.000;2023-04-03T02:46:55;6.47;;;2.50;;
54269;SDS011;40181;51.560;13.000;2023-04-03T02:49:24;3.70;;;1.92;;
54269;SDS011;40181;51.560;13.000;2023-04-03T02:51:53;4.38;;;2.22;;
54269;SDS011;40181;51.560;13.000;2023-04-03T02:54:25;3.17;;;2.30;;
54269;SDS011;40181;51.560;13.000;2023-04-03T02:56:55;2.05;;;1.92;;
54269;SDS011;40181;51.560;13.000;2023-04-03T02:59:26;2.10;;;1.90;;
54269;SDS011;40181;51.560;13.000;2023-04-03T03:01:55;2.38;;;2.17;;
54269;SDS011;40181;51.560;13.000;2023-04-03T03:04:24;3.38;;;1.85;;
54269;SDS011;40181;51.560;13.000;2023-04-03T03:06:53;2.28;;;2.08;;
54269;SDS011;40181;51.560;13.000;2023-04-03T03:09:24;3.35;;;2.20;;
54269;SDS011;40181;51.560;13.000;2023-04-03T03:11:54;4.07;;;2.42;;
54269;SDS011;40181;51.560;13.000;2023-04-03T03:14:23;4.20;;;2.33;;
54269;SDS011;40181;51.560;13.000;2023-04-03T03:16:52;4.68;;;2.83;;
54269;SDS011;40181;51.560;13.000;2023-04-03T03:19:21;6.25;;;2.50;;
54269;SDS011;40181;51.560;13.000;2023-04-03T03:21:50;3.38;;;2.78;;
54269;SDS011;40181;51.560;13.000;2023-04-03T03:24:20;2.85;;;2.30;;
54269;SDS011;40181;51.560;13.000;2023-04-03T03:26:51;3.50;;;2.25;;
54269;SDS011;40181;51.560;13.000;2023-04-03T03:29:20;2.00;;;1.90;;
54269;SDS011;40181;51.560;13.000;2023-04-03T03:31:49;3.28;;;2.10;;
54269;SDS011;40181;51.560;13.000;2023-04-03T03:34:19;4.07;;;2.30;;
54269;SDS011;40181;51.560;13.000;2023-04-03T03:36:48;2.70;;;2.50;;
54269;SDS011;40181;51.560;13.000;2023-04-03T03:39:17;2.92;;;2.42;;
54269;SDS011;40181;51.560;13.000;2023-04-03T03:41:46;2.60;;;2.22;;
54269;SDS011;40181;51.560;13.000;2023-04-03T03:44:18;2.78;;;2.47;;
54269;SDS011;40181;51.560;13.000;2023-04-03T03:46:47;5.47;;;3.20;;
54269;SDS011;40181;51.560;13.000;2023-04-03T03:49:16;5.13;;;2.85;;
54269;SDS011;40181;51.560;13.000;2023-04-03T03:51:45;3.17;;;2.67;;
54269;SDS011;40181;51.560;13.000;2023-04-03T03:54:15;2.67;;;2.47;;
54269;SDS011;40181;51.560;13.000;2023-04-03T03:56:43;2.67;;;2.28;;
54269;SDS011;40181;51.560;13.000;2023-04-03T03:59:12;3.33;;;2.45;;
54269;SDS011;40181;51.560;13.000;2023-04-03T04:01:44;3.53;;;2.42;;
54269;SDS011;40181;51.560;13.000;2023-04-03T04:04:13;3.53;;;2.67;;
54269;SDS011;40181;51.560;13.000;2023-04-03T04:06:42;2.30;;;2.10;;
54269;SDS011;40181;51.560;13.000;2023-04-03T04:09:11;2.88;;;2.58;;
54269;SDS011;40181;51.560;13.000;2023-04-03T04:11:41;6.90;;;2.88;;
54269;SDS011;40181;51.560;13.000;2023-04-03T04:14:10;2.83;;;2.53;;
54269;SDS011;40181;51.560;13.000;2023-04-03T04:16:39;2.65;;;2.33;;
54269;SDS011;40181;51.560;13.000;2023-04-03T04:19:10;2.90;;;2.30;;
54269;SDS011;40181;51.560;13.000;2023-04-03T04:21:40;3.83;;;2.90;;
54269;SDS011;40181;51.560;13.000;2023-04-03T04:24:09;3.47;;;2.67;;
54269;SDS011;40181;51.560;13.000;2023-04-03T04:26:38;2.83;;;2.28;;
54269;SDS011;40181;51.560;13.000;2023-04-03T04:29:08;3.60;;;2.58;;
54269;SDS011;40181;51.560;13.000;2023-04-03T04:31:37;2.80;;;2.58;;
54269;SDS011;40181;51.560;13.000;2023-04-03T04:34:06;6.15;;;2.80;;
54269;SDS011;40181;51.560;13.000;2023-04-03T04:36:38;7.95;;;2.42;;
54269;SDS011;40181;51.560;13.000;2023-04-03T04:39:08;3.15;;;2.45;;
54269;SDS011;40181;51.560;13.000;2023-04-03T04:41:37;2.83;;;2.35;;
54269;SDS011;40181;51.560;13.000;2023-04-03T04:44:06;2.42;;;2.20;;
54269;SDS011;40181;51.560;13.000;2023-04-03T04:46:35;3.65;;;2.53;;
54269;SDS011;40181;51.560;13.000;2023-04-03T04:49:04;2.50;;;2.30;;
54269;SDS011;40181;51.560;13.000;2023-04-03T04:51:35;3.08;;;2.10;;
54269;SDS011;40181;51.560;13.000;2023-04-03T04:54:05;2.90;;;2.33;;
54269;SDS011;40181;51.560;13.000;2023-04-03T04:56:34;3.92;;;3.03;;
54269;SDS011;40181;51.560;13.000;2023-04-03T04:59:03;3.00;;;2.70;;
54269;SDS011;40181;51.560;13.000;2023-04-03T05:01:32;3.00;;;2.53;;
54269;SDS011;40181;51.560;13.000;2023-04-03T05:04:01;5.75;;;2.72;;
54269;SDS011;40181;51.560;13.000;2023-04-03T05:06:30;2.67;;;2.30;;
54269;SDS011;40181;51.560;13.000;2023-04-03T05:09:02;2.78;;;2.55;;
54269;SDS011;40181;51.560;13.000;2023-04-03T05:11:32;2.63;;;2.40;;
54269;SDS011;40181;51.560;13.000;2023-04-03T05:14:01;3.72;;;2.50;;
54269;SDS011;40181;51.560;13.000;2023-04-03T05:16:31;3.42;;;2.35;;
54269;SDS011;40181;51.560;13.000;2023-04-03T05:19:00;2.58;;;2.38;;
54269;SDS011;40181;51.560;13.000;2023-04-03T05:21:30;3.03;;;2.50;;
54269;SDS011;40181;51.560;13.000;2023-04-03T05:24:00;3.85;;;2.72;;
54269;SDS011;40181;51.560;13.000;2023-04-03T05:26:34;4.28;;;2.78;;
54269;SDS011;40181;51.560;13.000;2023-04-03T05:29:03;3.45;;;2.72;;
54269;SDS011;40181;51.560;13.000;2023-04-03T05:31:32;3.92;;;2.42;;
54269;SDS011;40181;51.560;13.000;2023-04-03T05:34:01;4.65;;;2.95;;
54269;SDS011;40181;51.560;13.000;2023-04-03T05:36:31;2.65;;;2.45;;
54269;SDS011;40181;51.560;13.000;2023-04-03T05:39:02;4.75;;;3.25;;
54269;SDS011;40181;51.560;13.000;2023-04-03T05:41:31;2.33;;;2.13;;
54269;SDS011;40181;51.560;13.000;2023-04-03T05:44:00;2.70;;;2.50;;
54269;SDS011;40181;51.560;13.000;2023-04-03T05:46:30;5.60;;;3.00;;
54269;SDS011;40181;51.560;13.000;2023-04-03T05:48:59;3.30;;;2.65;;
54269;SDS011;40181;51.560;13.000;2023-04-03T05:51:28;4.00;;;2.85;;
54269;SDS011;40181;51.560;13.000;2023-04-03T05:54:06;3.72;;;3.05;;
54269;SDS011;40181;51.560;13.000;2023-04-03T05:56:40;4.05;;;2.83;;
54269;SDS011;40181;51.560;13.000;2023-04-03T05:59:10;4.15;;;2.88;;
54269;SDS011;40181;51.560;13.000;2023-04-03T06:01:39;4.28;;;3.10;;
54269;SDS011;40181;51.560;13.000;2023-04-03T06:04:08;3.33;;;2.63;;
54269;SDS011;40181;51.560;13.000;2023-04-03T06:06:45;2.42;;;2.22;;
54269;SDS011;40181;51.560;13.000;2023-04-03T06:09:19;3.10;;;2.80;;
54269;SDS011;40181;51.560;13.000;2023-04-03T06:11:50;3.22;;;2.55;;
54269;SDS011;40181;51.560;13.000;2023-04-03T06:14:19;2.22;;;2.08;;
54269;SDS011;40181;51.560;13.000;2023-04-03T06:16:48;5.55;;;2.88;;
54269;SDS011;40181;51.560;13.000;2023-04-03T06:19:17;5.00;;;3.13;;
54269;SDS011;40181;51.560;13.000;2023-04-03T06:21:47;3.50;;;2.60;;
54269;SDS011;40181;51.560;13.000;2023-04-03T06:24:18;3.25;;;2.40;;
54269;SDS011;40181;51.560;13.000;2023-04-03T06:26:50;3.53;;;2.60;;
54269;SDS011;40181;51.560;13.000;2023-04-03T06:29:20;3.55;;;2.67;;
54269;SDS011;40181;51.560;13.000;2023-04-03T06:31:49;2.83;;;2.20;;
54269;SDS011;40181;51.560;13.000;2023-04-03T06:34:19;3.90;;;2.47;;
54269;SDS011;40181;51.560;13.000;2023-04-03T06:36:49;3.80;;;2.40;;
54269;SDS011;40181;51.560;13.000;2023-04-03T06:39:20;5.93;;;3.03;;
54269;SDS011;40181;51.560;13.000;2023-04-03T06:41:50;3.72;;;2.60;;
54269;SDS011;40181;51.560;13.000;2023-04-03T06:44:20;4.28;;;2.88;;
54269;SDS011;40181;51.560;13.000;2023-04-03T06:46:49;2.47;;;2.25;;
54269;SDS011;40181;51.560;13.000;2023-04-03T06:49:19;5.43;;;2.95;;
54269;SDS011;40181;51.560;13.000;2023-04-03T06:51:48;4.20;;;2.33;;
54269;SDS011;40181;51.560;13.000;2023-04-03T06:54:20;4.03;;;2.45;;
54269;SDS011;40181;51.560;13.000;2023-04-03T06:56:49;4.05;;;2.60;;
54269;SDS011;40181;51.560;13.000;2023-04-03T06:59:18;4.53;;;2.25;;
54269;SDS011;40181;51.560;13.000;2023-04-03T07:01:47;4.50;;;2.70;;
54269;SDS011;40181;51.560;13.000;2023-04-03T07:04:16;2.42;;;2.22;;
54269;SDS011;40181;51.560;13.000;2023-04-03T07:06:46;2.80;;;2.50;;
54269;SDS011;40181;51.560;13.000;2023-04-03T07:09:19;3.00;;;2.22;;
54269;SDS011;40181;51.560;13.000;2023-04-03T07:11:49;3.38;;;2.72;;
54269;SDS011;40181;51.560;13.000;2023-04-03T07:14:18;2.75;;;2.40;;
54269;SDS011;40181;51.560;13.000;2023-04-03T07:16:47;3.42;;;2.47;;
54269;SDS011;40181;51.560;13.000;2023-04-03T07:19:16;2.80;;;2.50;;
54269;SDS011;40181;51.560;13.000;2023-04-03T07:21:46;3.47;;;2.50;;
54269;SDS011;40181;51.560;13.000;2023-04-03T07:24:15;2.75;;;2.00;;
54269;SDS011;40181;51.560;13.000;2023-04-03T07:26:48;6.35;;;2.30;;
54269;SDS011;40181;51.560;13.000;2023-04-03T07:29:17;5.88;;;2.30;;
54269;SDS011;40181;51.560;13.000;2023-04-03T07:31:47;3.33;;;2.17;;
54269;SDS011;40181;51.560;13.000;2023-04-03T07:34:17;2.42;;;2.03;;
54269;SDS011;40181;51.560;13.000;2023-04-03T07:36:46;2.45;;;2.03;;
54269;SDS011;40181;51.560;13.000;2023-04-03T07:39:15;5.93;;;2.22;;
54269;SDS011;40181;51.560;13.000;2023-04-03T07:41:47;4.55;;;2.25;;
54269;SDS011;40181;51.560;13.000;2023-04-03T07:44:16;5.20;;;2.70;;
54269;SDS011;40181;51.560;13.000;2023-04-03T07:46:45;3.60;;;2.15;;
54269;SDS011;40181;51.560;13.000;2023-04-03T07:49:15;3.05;;;2.25;;
54269;SDS011;40181;51.560;13.000;2023-04-03T07:51:48;4.38;;;2.55;;
54269;SDS011;40181;51.560;13.000;2023-04-03T07:54:18;2.13;;;1.92;;
54269;SDS011;40181;51.560;13.000;2023-04-03T07:56:49;1.73;;;1.60;;
54269;SDS011;40181;51.560;13.000;2023-04-03T07:59:18;2.65;;;1.98;;
54269;SDS011;40181;51.560;13.000;2023-04-03T08:01:47;2.90;;;1.92;;
54269;SDS011;40181;51.560;13.000;2023-04-03T08:04:16;2.55;;;2.05;;
54269;SDS011;40181;51.560;13.000;2023-04-03T08:06:45;2.17;;;1.77;;
54269;SDS011;40181;51.560;13.000;2023-04-03T08:09:15;2.55;;;1.83;;
54269;SDS011;40181;51.560;13.000;2023-04-03T08:11:44;1.70;;;1.55;;
54269;SDS011;40181;51.560;13.000;2023-04-03T08:14:16;1.90;;;1.63;;
54269;SDS011;40181;51.560;13.000;2023-04-03T08:16:45;2.25;;;1.60;;
54269;SDS011;40181;51.560;13.000;2023-04-03T08:19:16;3.65;;;2.08;;
54269;SDS011;40181;51.560;13.000;2023-04-03T08:21:45;1.55;;;1.45;;
54269;SDS011;40181;51.560;13.000;2023-04-03T08:24:14;3.88;;;2.83;;
54269;SDS011;40181;51.560;13.000;2023-04-03T08:26:43;8.70;;;2.83;;
54269;SDS011;40181;51.560;13.000;2023-04-03T08:29:12;4.05;;;2.17;;
54269;SDS011;40181;51.560;13.000;2023-04-03T08:31:44;2.55;;;2.28;;
54269;SDS011;40181;51.560;13.000;2023-04-03T08:34:14;3.22;;;2.00;;
54269;SDS011;40181;51.560;13.000;2023-04-03T08:36:44;2.60;;;1.45;;
54269;SDS011;40181;51.560;13.000;2023-04-03T08:39:13;2.30;;;1.90;;
54269;SDS011;40181;51.560;13.000;2023-04-03T08:41:43;4.38;;;2.13;;
54269;SDS011;40181;51.560;13.000;2023-04-03T08:44:17;5.10;;;1.92;;
54269;SDS011;40181;51.560;13.000;2023-04-03T08:47:00;2.90;;;1.92;;
54269;SDS011;40181;51.560;13.000;2023-04-03T08:49:39;1.88;;;1.70;;
54269;SDS011;40181;51.560;13.000;2023-04-03T08:52:14;1.40;;;1.30;;
54269;SDS011;40181;51.560;13.000;2023-04-03T08:54:49;3.15;;;2.05;;
54269;SDS011;40181;51.560;13.000;2023-04-03T08:57:26;2.83;;;1.60;;
54269;SDS011;40181;51.560;13.000;2023-04-03T09:00:03;1.75;;;1.55;;
54269;SDS011;40181;51.560;13.000;2023-04-03T09:02:40;2.33;;;1.63;;
54269;SDS011;40181;51.560;13.000;2023-04-03T09:05:13;1.90;;;1.60;;
54269;SDS011;40181;51.560;13.000;2023-04-03T09:07:46;6.38;;;1.88;;
54269;SDS011;40181;51.560;13.000;2023-04-03T09:10:23;2.30;;;1.65;;
54269;SDS011;40181;51.560;13.000;2023-04-03T09:12:58;2.05;;;1.33;;
54269;SDS011;40181;51.560;13.000;2023-04-03T09:15:34;2.15;;;1.55;;
54269;SDS011;40181;51.560;13.000;2023-04-03T09:18:04;1.30;;;1.20;;
54269;SDS011;40181;51.560;13.000;2023-04-03T09:20:42;1.30;;;1.20;;
54269;SDS011;40181;51.560;13.000;2023-04-03T09:23:20;1.60;;;1.20;;
54269;SDS011;40181;51.560;13.000;2023-04-03T09:25:58;3.85;;;1.88;;
54269;SDS011;40181;51.560;13.000;2023-04-03T09:28:34;1.60;;;1.30;;
54269;SDS011;40181;51.560;13.000;2023-04-03T09:31:13;1.77;;;1.25;;
54269;SDS011;40181;51.560;13.000;2023-04-03T09:33:49;1.40;;;1.27;;
54269;SDS011;40181;51.560;13.000;2023-04-03T09:39:11;2.30;;;1.20;;
54269;SDS011;40181;51.560;13.000;2023-04-03T09:41:54;1.88;;;1.25;;
54269;SDS011;40181;51.560;13.000;2023-04-03T09:44:27;6.18;;;1.67;;
54269;SDS011;40181;51.560;13.000;2023-04-03T09:47:02;2.45;;;1.38;;
54269;SDS011;40181;51.560;13.000;2023-04-03T09:49:49;1.85;;;1.58;;
54269;SDS011;40181;51.560;13.000;2023-04-03T09:52:19;2.63;;;1.60;;
54269;SDS011;40181;51.560;13.000;2023-04-03T09:54:51;2.58;;;1.58;;
54269;SDS011;40181;51.560;13.000;2023-04-03T09:57:20;1.70;;;1.20;;
54269;SDS011;40181;51.560;13.000;2023-04-03T09:59:56;2.22;;;1.33;;
54269;SDS011;40181;51.560;13.000;2023-04-03T10:02:36;5.55;;;1.50;;
54269;SDS011;40181;51.560;13.000;2023-04-03T10:08:06;2.10;;;1.38;;
54269;SDS011;40181;51.560;13.000;2023-04-03T10:10:38;1.60;;;1.23;;
54269;SDS011;40181;51.560;13.000;2023-04-03T10:13:10;2.20;;;1.25;;
54269;SDS011;40181;51.560;13.000;2023-04-03T10:15:42;1.67;;;1.38;;
54269;SDS011;40181;51.560;13.000;2023-04-03T10:18:22;1.38;;;1.20;;
54269;SDS011;40181;51.560;13.000;2023-04-03T10:21:02;1.73;;;1.25;;
54269;SDS011;40181;51.560;13.000;2023-04-03T10:23:38;3.05;;;1.48;;
54269;SDS011;40181;51.560;13.000;2023-04-03T10:26:15;1.00;;;1.00;;
54269;SDS011;40181;51.560;13.000;2023-04-03T10:28:53;1.25;;;1.13;;
54269;SDS011;40181;51.560;13.000;2023-04-03T10:31:34;1.10;;;1.00;;
54269;SDS011;40181;51.560;13.000;2023-04-03T10:34:16;2.70;;;1.30;;
54269;SDS011;40181;51.560;13.000;2023-04-03T10:36:52;1.75;;;1.45;;
54269;SDS011;40181;51.560;13.000;2023-04-03T10:39:32;2.13;;;1.05;;
54269;SDS011;40181;51.560;13.000;2023-04-03T10:42:08;1.38;;;1.25;;
54269;SDS011;40181;51.560;13.000;2023-04-03T10:44:57;6.30;;;1.70;;
54269;SDS011;40181;51.560;13.000;2023-04-03T10:47:44;2.40;;;1.63;;
54269;SDS011;40181;51.560;13.000;2023-04-03T10:50:29;1.40;;;1.30;;
54269;SDS011;40181;51.560;13.000;2023-04-03T10:53:09;1.42;;;1.13;;
54269;SDS011;40181;51.560;13.000;2023-04-03T10:55:50;2.70;;;1.55;;
54269;SDS011;40181;51.560;13.000;2023-04-03T10:58:26;1.45;;;1.05;;
54269;SDS011;40181;51.560;13.000;2023-04-03T11:01:05;2.50;;;1.58;;
54269;SDS011;40181;51.560;13.000;2023-04-03T11:03:39;1.30;;;1.20;;
54269;SDS011;40181;51.560;13.000;2023-04-03T11:06:15;1.00;;;0.93;;
54269;SDS011;40181;51.560;13.000;2023-04-03T11:08:49;2.45;;;1.30;;
54269;SDS011;40181;51.560;13.000;2023-04-03T11:11:24;11.70;;;1.55;;
54269;SDS011;40181;51.560;13.000;2023-04-03T11:13:59;2.38;;;1.27;;
54269;SDS011;40181;51.560;13.000;2023-04-03T11:16:33;3.33;;;1.45;;
54269;SDS011;40181;51.560;13.000;2023-04-03T11:19:11;1.10;;;1.05;;
54269;SDS011;40181;51.560;13.000;2023-04-03T11:21:54;2.28;;;1.58;;
54269;SDS011;40181;51.560;13.000;2023-04-03T11:24:32;2.03;;;1.52;;
54269;SDS011;40181;51.560;13.000;2023-04-03T11:27:05;2.08;;;1.08;;
54269;SDS011;40181;51.560;13.000;2023-04-03T11:29:43;1.77;;;1.42;;
54269;SDS011;40181;51.560;13.000;2023-04-03T11:32:21;1.45;;;1.00;;
54269;SDS011;40181;51.560;13.000;2023-04-03T11:35:13;2.00;;;1.55;;
54269;SDS011;40181;51.560;13.000;2023-04-03T11:37:46;1.17;;;1.00;;
54269;SDS011;40181;51.560;13.000;2023-04-03T11:40:21;1.42;;;1.10;;
54269;SDS011;40181;51.560;13.000;2023-04-03T11:42:55;0.80;;;0.80;;
54269;SDS011;40181;51.560;13.000;2023-04-03T11:45:36;1.60;;;1.30;;
54269;SDS011;40181;51.560;13.000;2023-04-03T11:51:37;2.03;;;1.30;;
54269;SDS011;40181;51.560;13.000;2023-04-03T12:00:46;1.05;;;0.95;;
54269;SDS011;40181;51.560;13.000;2023-04-03T12:06:47;0.82;;;0.80;;
54269;SDS011;40181;51.560;13.000;2023-04-03T12:15:52;1.52;;;0.93;;
54269;SDS011;40181;51.560;13.000;2023-04-03T12:18:32;0.70;;;0.70;;
54269;SDS011;40181;51.560;13.000;2023-04-03T12:21:10;3.25;;;1.20;;
54269;SDS011;40181;51.560;13.000;2023-04-03T12:23:56;2.97;;;1.23;;
54269;SDS011;40181;51.560;13.000;2023-04-03T12:27:02;1.13;;;0.90;;
54269;SDS011;40181;51.560;13.000;2023-04-03T12:29:50;1.85;;;1.10;;
54269;SDS011;40181;51.560;13.000;2023-04-03T12:35:42;2.20;;;1.05;;
54269;SDS011;40181;51.560;13.000;2023-04-03T12:38:31;1.20;;;1.10;;
54269;SDS011;40181;51.560;13.000;2023-04-03T12:41:18;2.45;;;1.45;;
54269;SDS011;40181;51.560;13.000;2023-04-03T12:44:03;2.35;;;1.45;;
54269;SDS011;40181;51.560;13.000;2023-04-03T12:47:07;2.20;;;1.00;;
54269;SDS011;40181;51.560;13.000;2023-04-03T12:49:52;1.25;;;1.15;;
54269;SDS011;40181;51.560;13.000;2023-04-03T12:52:27;1.40;;;1.00;;
54269;SDS011;40181;51.560;13.000;2023-04-03T12:55:07;0.70;;;0.70;;
54269;SDS011;40181;51.560;13.000;2023-04-03T12:57:43;2.88;;;1.20;;
54269;SDS011;40181;51.560;13.000;2023-04-03T13:00:27;5.18;;;1.20;;
54269;SDS011;40181;51.560;13.000;2023-04-03T13:03:01;8.60;;;1.40;;
54269;SDS011;40181;51.560;13.000;2023-04-03T13:05:32;2.88;;;1.27;;
54269;SDS011;40181;51.560;13.000;2023-04-03T13:08:02;2.10;;;1.20;;
54269;SDS011;40181;51.560;13.000;2023-04-03T13:10:35;1.75;;;1.05;;
54269;SDS011;40181;51.560;13.000;2023-04-03T13:13:21;1.52;;;1.15;;
54269;SDS011;40181;51.560;13.000;2023-04-03T13:15:54;1.40;;;1.05;;
54269;SDS011;40181;51.560;13.000;2023-04-03T13:18:25;1.63;;;1.27;;
54269;SDS011;40181;51.560;13.000;2023-04-03T13:20:59;0.98;;;0.93;;
54269;SDS011;40181;51.560;13.000;2023-04-03T13:23:34;3.83;;;1.35;;
54269;SDS011;40181;51.560;13.000;2023-04-03T13:26:08;1.38;;;1.10;;
54269;SDS011;40181;51.560;13.000;2023-04-03T13:28:39;3.05;;;1.40;;
54269;SDS011;40181;51.560;13.000;2023-04-03T13:31:16;1.38;;;1.25;;
54269;SDS011;40181;51.560;13.000;2023-04-03T13:33:55;1.40;;;1.10;;
54269;SDS011;40181;51.560;13.000;2023-04-03T13:36:34;3.05;;;1.17;;
54269;SDS011;40181;51.560;13.000;2023-04-03T13:39:06;1.02;;;0.98;;
54269;SDS011;40181;51.560;13.000;2023-04-03T13:41:51;1.30;;;1.00;;
54269;SDS011;40181;51.560;13.000;2023-04-03T13:44:26;1.23;;;1.13;;
54269;SDS011;40181;51.560;13.000;2023-04-03T13:47:14;1.45;;;1.00;;
54269;SDS011;40181;51.560;13.000;2023-04-03T13:49:58;1.20;;;1.02;;
54269;SDS011;40181;51.560;13.000;2023-04-03T13:52:30;1.90;;;1.33;;
54269;SDS011;40181;51.560;13.000;2023-04-03T13:55:15;1.10;;;1.00;;
54269;SDS011;40181;51.560;13.000;2023-04-03T13:57:53;1.02;;;0.90;;
54269;SDS011;40181;51.560;13.000;2023-04-03T14:00:34;2.00;;;1.10;;
54269;SDS011;40181;51.560;13.000;2023-04-03T14:03:16;1.20;;;1.10;;
54269;SDS011;40181;51.560;13.000;2023-04-03T14:05:49;0.98;;;0.90;;
54269;SDS011;40181;51.560;13.000;2023-04-03T14:08:19;1.77;;;1.25;;
54269;SDS011;40181;51.560;13.000;2023-04-03T14:10:49;1.63;;;1.27;;
54269;SDS011;40181;51.560;13.000;2023-04-03T14:13:19;1.23;;;1.13;;
54269;SDS011;40181;51.560;13.000;2023-04-03T14:15:48;6.78;;;1.88;;
54269;SDS011;40181;51.560;13.000;2023-04-03T14:18:21;1.80;;;1.17;;
54269;SDS011;40181;51.560;13.000;2023-04-03T14:20:50;1.00;;;0.90;;
54269;SDS011;40181;51.560;13.000;2023-04-03T14:23:19;1.05;;;0.98;;
54269;SDS011;40181;51.560;13.000;2023-04-03T14:25:48;3.70;;;1.48;;
54269;SDS011;40181;51.560;13.000;2023-04-03T14:28:19;1.53;;;1.10;;
54269;SDS011;40181;51.560;13.000;2023-04-03T14:30:50;4.57;;;1.15;;
54269;SDS011;40181;51.560;13.000;2023-04-03T14:33:22;1.10;;;1.00;;
54269;SDS011;40181;51.560;13.000;2023-04-03T14:35:52;1.33;;;1.17;;
54269;SDS011;40181;51.560;13.000;2023-04-03T14:38:23;1.30;;;1.10;;
54269;SDS011;40181;51.560;13.000;2023-04-03T14:40:58;2.05;;;1.20;;
54269;SDS011;40181;51.560;13.000;2023-04-03T14:43:27;2.60;;;0.90;;
54269;SDS011;40181;51.560;13.000;2023-04-03T14:45:57;1.38;;;1.23;;
54269;SDS011;40181;51.560;13.000;2023-04-03T14:48:29;1.98;;;1.50;;
54269;SDS011;40181;51.560;13.000;2023-04-03T14:50:58;1.40;;;1.30;;
54269;SDS011;40181;51.560;13.000;2023-04-03T14:53:27;2.15;;;1.73;;
54269;SDS011;40181;51.560;13.000;2023-04-03T14:55:57;1.65;;;1.55;;
54269;SDS011;40181;51.560;13.000;2023-04-03T14:58:26;7.03;;;1.77;;
54269;SDS011;40181;51.560;13.000;2023-04-03T15:00:57;1.33;;;1.23;;
54269;SDS011;40181;51.560;13.000;2023-04-03T15:03:28;3.28;;;1.83;;
54269;SDS011;40181;51.560;13.000;2023-04-03T15:05:57;3.53;;;1.27;;
54269;SDS011;40181;51.560;13.000;2023-04-03T15:08:27;1.27;;;1.17;;
54269;SDS011;40181;51.560;13.000;2023-04-03T15:10:57;3.40;;;1.52;;
54269;SDS011;40181;51.560;13.000;2023-04-03T15:13:26;1.30;;;1.20;;
54269;SDS011;40181;51.560;13.000;2023-04-03T15:15:55;1.73;;;1.35;;
54269;SDS011;40181;51.560;13.000;2023-04-03T15:18:25;1.25;;;1.15;;
54269;SDS011;40181;51.560;13.000;2023-04-03T15:21:00;2.60;;;1.58;;
54269;SDS011;40181;51.560;13.000;2023-04-03T15:23:30;1.55;;;1.45;;
54269;SDS011;40181;51.560;13.000;2023-04-03T15:25:59;2.10;;;1.45;;
54269;SDS011;40181;51.560;13.000;2023-04-03T15:28:30;1.10;;;1.02;;
54269;SDS011;40181;51.560;13.000;2023-04-03T15:31:02;1.40;;;1.08;;
54269;SDS011;40181;51.560;13.000;2023-04-03T15:33:35;1.27;;;1.17;;